createdAt,value
2022-09-22T00:01:48.239Z,3.50
2022-09-22T00:06:55.658Z,3.70
2022-09-22T00:11:58.474Z,3.40
2022-09-22T00:17:01.978Z,3.40
2022-09-22T00:22:05.993Z,3.50
2022-09-22T00:27:09.366Z,3.40
2022-09-22T00:32:13.568Z,3.30
2022-09-22T00:37:16.797Z,3.20
2022-09-22T00:42:22.381Z,3.40
2022-09-22T00:47:34.414Z,3.30
2022-09-22T00:52:42.750Z,3.20
2022-09-22T00:57:47.947Z,3.20
2022-09-22T01:02:55.882Z,3.10
2022-09-22T01:07:58.911Z,3.20
2022-09-22T01:13:16.641Z,3.00
2022-09-22T01:18:36.786Z,2.90
2022-09-22T01:24:05.138Z,2.90
2022-09-22T01:29:16.673Z,3.00
2022-09-22T01:34:29.301Z,3.00
2022-09-22T01:39:36.925Z,2.90
2022-09-22T01:45:15.017Z,2.80
2022-09-22T01:50:25.787Z,2.90
2022-09-22T01:55:33.049Z,2.90
2022-09-22T02:00:40.974Z,2.80
2022-09-22T02:05:52.528Z,2.90
2022-09-22T02:11:01.375Z,2.90
2022-09-22T02:16:05.655Z,2.90
2022-09-22T02:21:08.710Z,3.00
2022-09-22T02:26:13.691Z,3.10
2022-09-22T02:31:20.793Z,3.20
2022-09-22T02:36:48.975Z,3.20
2022-09-22T02:42:24.884Z,3.30
2022-09-22T02:47:32.719Z,3.50
2022-09-22T02:52:36.484Z,3.50
2022-09-22T02:57:39.329Z,3.50
2022-09-22T03:02:41.940Z,3.40
2022-09-22T03:07:44.679Z,3.30
2022-09-22T03:13:14.505Z,3.00
2022-09-22T03:18:10.110Z,2.90
2022-09-22T03:23:12.899Z,3.00
2022-09-22T03:28:15.628Z,3.00
2022-09-22T03:33:18.456Z,3.10
2022-09-22T03:38:21.239Z,3.20
2022-09-22T03:43:23.883Z,1.40
2022-09-22T03:48:28.949Z,3.10
2022-09-22T03:53:32.048Z,3.10
2022-09-22T03:58:35.518Z,3.20
2022-09-22T04:03:38.869Z,3.10
2022-09-22T04:08:41.566Z,2.90
2022-09-22T04:13:46.594Z,2.70
2022-09-22T04:18:49.353Z,2.60
2022-09-22T04:23:51.919Z,2.70
2022-09-22T04:28:54.523Z,2.60
2022-09-22T04:33:57.246Z,2.70
2022-09-22T04:39:02.605Z,2.80
2022-09-22T04:44:05.514Z,3.00
2022-09-22T04:49:08.058Z,3.20
2022-09-22T04:54:10.974Z,3.50
2022-09-22T04:59:13.884Z,3.70
2022-09-22T05:04:16.387Z,4.00
2022-09-22T05:09:20.943Z,4.10
2022-09-22T05:14:26.396Z,4.30
2022-09-22T05:19:30.388Z,4.80
2022-09-22T05:24:33.201Z,5.20
2022-09-22T05:29:35.794Z,5.60
2022-09-22T05:34:38.344Z,6.00
2022-09-22T05:39:40.875Z,6.30
2022-09-22T05:44:43.326Z,6.50
2022-09-22T05:49:46.080Z,6.70
2022-09-22T05:54:48.579Z,6.80
2022-09-22T05:59:55.452Z,6.90
2022-09-22T06:04:57.965Z,7.10
2022-09-22T06:10:00.867Z,7.30
2022-09-22T06:15:05.162Z,7.50
2022-09-22T06:20:09.268Z,7.60
2022-09-22T06:25:12.350Z,7.70
2022-09-22T06:30:15.030Z,7.80
2022-09-22T06:35:18.495Z,7.90
2022-09-22T06:40:21.127Z,8.00
2022-09-22T06:45:41.572Z,8.20
2022-09-22T06:50:52.756Z,8.20
2022-09-22T06:55:55.464Z,8.50
2022-09-22T07:01:08.930Z,8.70
2022-09-22T07:06:20.345Z,8.70
2022-09-22T07:11:23.885Z,8.70
2022-09-22T07:16:27.163Z,8.90
2022-09-22T07:21:35.230Z,9.40
2022-09-22T07:26:39.627Z,9.20
2022-09-22T07:31:43.645Z,9.40
2022-09-22T07:36:46.486Z,9.40
2022-09-22T07:41:49.312Z,9.80
2022-09-22T07:46:51.875Z,10.00
2022-09-22T07:51:55.155Z,10.00
2022-09-22T07:57:02.367Z,9.90
2022-09-22T08:02:06.243Z,10.30
2022-09-22T08:07:08.906Z,10.20
2022-09-22T08:12:11.621Z,10.20
2022-09-22T08:17:14.563Z,10.20
2022-09-22T08:22:18.819Z,10.40
2022-09-22T08:27:21.372Z,10.60
2022-09-22T08:32:26.710Z,10.60
2022-09-22T08:37:29.257Z,10.90
2022-09-22T08:42:34.217Z,10.60
2022-09-22T08:48:04.403Z,10.90
2022-09-22T08:53:12.184Z,11.20
2022-09-22T08:58:28.594Z,11.50
2022-09-22T09:03:43.231Z,11.50
2022-09-22T09:09:11.138Z,11.40
2022-09-22T09:14:36.339Z,11.50
2022-09-22T09:19:51.765Z,11.80
2022-09-22T09:25:27.283Z,12.10
2022-09-22T09:30:41.448Z,12.40
2022-09-22T09:35:53.773Z,12.90
2022-09-22T09:41:10.399Z,13.30
2022-09-22T09:46:16.909Z,14.20
2022-09-22T09:51:20.169Z,14.30
2022-09-22T09:56:28.351Z,13.50
2022-09-22T10:01:31.385Z,13.70
2022-09-22T10:06:34.644Z,13.50
2022-09-22T10:11:37.395Z,13.20
2022-09-22T10:16:51.775Z,13.00
2022-09-22T10:22:22.931Z,12.90
2022-09-22T10:27:28.119Z,13.20
2022-09-22T10:32:31.094Z,13.90
2022-09-22T10:37:34.038Z,14.50
2022-09-22T10:42:45.643Z,14.90
2022-09-22T10:48:07.605Z,14.80
2022-09-22T10:53:31.656Z,14.90
2022-09-22T10:59:08.226Z,14.90
2022-09-22T11:04:13.755Z,14.70
2022-09-22T11:09:42.036Z,14.70
2022-09-22T11:14:56.582Z,14.60
2022-09-22T11:20:07.273Z,14.70
2022-09-22T11:25:45.789Z,14.70
2022-09-22T11:30:51.937Z,14.70
2022-09-22T11:36:09.606Z,15.20
2022-09-22T11:41:18.602Z,15.00
2022-09-22T11:46:33.373Z,14.90
2022-09-22T11:51:35.910Z,14.90
2022-09-22T11:56:48.088Z,14.60
2022-09-22T12:01:52.477Z,14.50
2022-09-22T12:06:57.115Z,14.40
2022-09-22T12:12:03.072Z,14.30
2022-09-22T12:17:29.406Z,14.50
2022-09-22T12:23:03.953Z,14.60
2022-09-22T12:28:15.383Z,14.60
2022-09-22T12:33:17.939Z,15.20
2022-09-22T12:38:22.874Z,15.60
2022-09-22T12:43:26.763Z,15.80
2022-09-22T12:48:34.149Z,15.40
2022-09-22T12:53:41.537Z,14.70
2022-09-22T12:58:46.488Z,14.30
2022-09-22T13:03:50.959Z,14.20
2022-09-22T13:08:53.689Z,14.20
2022-09-22T13:13:56.313Z,13.80
2022-09-22T13:19:00.703Z,13.70
2022-09-22T13:24:06.410Z,13.60
2022-09-22T13:29:20.677Z,13.60
2022-09-22T13:34:36.814Z,13.40
2022-09-22T13:39:47.533Z,13.50
2022-09-22T13:45:06.874Z,13.50
2022-09-22T13:50:18.908Z,13.60
2022-09-22T13:55:28.374Z,14.00
2022-09-22T14:01:01.786Z,14.30
2022-09-22T14:06:22.809Z,14.20
2022-09-22T14:11:30.914Z,14.10
2022-09-22T14:16:33.697Z,14.00
2022-09-22T14:22:07.244Z,14.00
2022-09-22T14:27:19.406Z,13.90
2022-09-22T14:32:31.334Z,13.90
2022-09-22T14:37:45.598Z,13.80
2022-09-22T14:42:59.975Z,13.80
2022-09-22T14:48:20.700Z,13.80
2022-09-22T14:53:38.366Z,13.80
2022-09-22T14:58:43.194Z,13.70
2022-09-22T15:03:57.492Z,12.90
2022-09-22T15:09:05.392Z,13.70
2022-09-22T15:14:25.943Z,13.50
2022-09-22T15:19:29.144Z,13.40
2022-09-22T15:24:31.865Z,13.30
2022-09-22T15:29:34.708Z,13.30
2022-09-22T15:34:42.819Z,13.10
2022-09-22T15:39:45.607Z,12.90
2022-09-22T15:44:50.859Z,12.50
2022-09-22T15:49:54.966Z,12.10
2022-09-22T15:54:57.526Z,11.90
2022-09-22T16:00:01.614Z,11.60
2022-09-22T16:05:15.638Z,11.40
2022-09-22T16:10:22.935Z,11.40
2022-09-22T16:15:25.819Z,11.40
2022-09-22T16:20:28.506Z,11.40
2022-09-22T16:25:31.315Z,11.40
2022-09-22T16:30:33.975Z,11.40
2022-09-22T16:35:36.789Z,11.40
2022-09-22T16:40:39.875Z,11.30
2022-09-22T16:46:01.038Z,11.30
2022-09-22T16:51:04.848Z,11.30
2022-09-22T16:56:07.828Z,11.30
2022-09-22T17:01:10.939Z,11.20
2022-09-22T17:06:15.636Z,11.20
2022-09-22T17:11:19.482Z,11.10
2022-09-22T17:16:30.687Z,11.00
2022-09-22T17:21:35.349Z,10.80
2022-09-22T17:26:49.845Z,10.70
2022-09-22T17:31:57.608Z,10.70
2022-09-22T17:37:02.025Z,10.60
2022-09-22T17:42:06.383Z,10.40
2022-09-22T17:47:27.881Z,10.10
2022-09-22T17:52:33.587Z,10.00
2022-09-22T17:57:39.363Z,10.20
2022-09-22T18:02:43.136Z,9.90
2022-09-22T18:07:49.466Z,9.70
2022-09-22T18:12:55.155Z,9.50
2022-09-22T18:17:58.317Z,9.40
2022-09-22T18:23:02.632Z,9.20
2022-09-22T18:28:06.538Z,9.10
2022-09-22T18:33:09.926Z,9.00
2022-09-22T18:38:12.838Z,9.20
2022-09-22T18:43:16.161Z,9.40
2022-09-22T18:48:19.161Z,9.30
2022-09-22T18:53:23.074Z,9.20
2022-09-22T18:58:25.909Z,9.00
2022-09-22T19:03:28.842Z,8.90
2022-09-22T19:08:31.586Z,8.80
2022-09-22T19:13:35.446Z,8.70
2022-09-22T19:18:39.335Z,8.70
2022-09-22T19:23:43.060Z,8.70
2022-09-22T19:28:46.013Z,8.60
2022-09-22T19:33:48.784Z,8.60
2022-09-22T19:38:51.502Z,8.50
2022-09-22T19:43:55.015Z,8.60
2022-09-22T19:48:57.748Z,8.50
2022-09-22T19:54:00.511Z,8.60
2022-09-22T19:59:04.064Z,8.50
2022-09-22T20:04:09.999Z,8.50
2022-09-22T20:09:12.718Z,8.50
2022-09-22T20:14:22.915Z,8.50
2022-09-22T20:19:31.407Z,8.50
2022-09-22T20:24:34.157Z,8.40
2022-09-22T20:29:37.209Z,8.30
2022-09-22T20:34:40.319Z,8.20
2022-09-22T20:39:43.031Z,8.20
2022-09-22T20:44:46.926Z,8.10
2022-09-22T20:49:51.964Z,8.00
2022-09-22T20:54:54.742Z,7.90
2022-09-22T21:00:01.900Z,8.00
2022-09-22T21:05:05.120Z,7.80
2022-09-22T21:10:46.710Z,7.60
2022-09-22T21:15:49.462Z,7.40
2022-09-22T21:20:52.308Z,7.30
2022-09-22T21:26:04.249Z,7.20
2022-09-22T21:31:08.794Z,7.00
2022-09-22T21:36:15.497Z,6.80
2022-09-22T21:41:20.412Z,6.70
2022-09-22T21:46:31.128Z,6.50
2022-09-22T21:51:41.386Z,6.30
2022-09-22T21:56:44.134Z,6.20
2022-09-22T22:01:47.677Z,6.10
2022-09-22T22:06:50.661Z,5.90
2022-09-22T22:11:56.755Z,5.70
2022-09-22T22:17:01.310Z,5.50
2022-09-22T22:22:05.711Z,5.40
2022-09-22T22:27:10.860Z,5.30
2022-09-22T22:32:15.343Z,5.10
2022-09-22T22:37:18.010Z,5.00
2022-09-22T22:42:20.548Z,4.90
2022-09-22T22:47:23.066Z,4.90
2022-09-22T22:52:25.730Z,4.80
2022-09-22T22:57:28.420Z,4.70
2022-09-22T23:02:31.008Z,4.70
2022-09-22T23:07:33.717Z,4.70
2022-09-22T23:12:40.627Z,4.70
2022-09-22T23:17:43.122Z,4.70
2022-09-22T23:22:46.049Z,4.70
2022-09-22T23:27:48.872Z,4.60
2022-09-22T23:32:51.510Z,4.40
2022-09-22T23:37:54.089Z,4.40
2022-09-22T23:42:58.740Z,4.30
2022-09-22T23:48:01.420Z,4.30
2022-09-22T23:53:05.364Z,4.20
2022-09-22T23:58:08.673Z,4.20
